Airport View

Enter ICAO identifier to see the current METAR for that AWOS.

KFNL for example

KFWC 250315Z AUTO 00000KT 10SM CLR 17/16 A3005

25 Jul 2014 03:37

Frequency: 119.425

Phone: 618-847-4709

Other Area AWOS: KFOA - KMVN - KCUL - KOLY

TAF KEVV 242320Z 2500/2524 VRB02KT P6SM SKC FM251400 16004KT P6SM SCT030